Ewtrford, Pennsylvania
Current Conditions -  °F | °C
As of 8:53 PM on Thursday 18 Dec 2014 (Local Time) from KAOO Reporting Station
Overcast Overcast  
Wind Chill: 17°   Ceiling: 1800
Heat Index: 28°   Visibility: 10mi
Dew Point: 22°   Wind: 14mph
Humidity: 78%   Direction: 320°NW
Pressure: 30.07"   Gusts: NA
Location:  40.3617°N, 77.6745°W
Report Text: KAOO 190153Z AUTO 32012KT 10SM OVC018 M02/M06 A3007 RMK AO2 SLP200 T10221056
Loading
Personal Weather Stations






























Interactive Weather Map New forecast layout! Learn more

10-Day Weather Forecast

Advertisements
Track Severe Weather on mobile